Time;durP1;ratioP1;P1;durP2;ratioP2;P2;SDS_P1;SDS_P2;PMS_P1;PMS_P2;Temp;Humidity;BMP_temperature;BMP_pressure;BME280_temperature;BME280_humidity;BME280_pressure;Samples;Min_cycle;Max_cycle;Signal;HPM_P1;HPM_P2
2021/05/28 00:02:39;;;;;;;5.93;3.50;;;14.10;94.80;;;;;;4991585;28;20112;-66
2021/05/28 00:05:23;;;;;;;4.30;3.20;;;14.10;94.80;;;;;;4993471;28;20049;-67
2021/05/28 00:08:08;;;;;;;5.68;3.10;;;14.00;94.80;;;;;;5009975;28;20033;-67
2021/05/28 00:10:51;;;;;;;6.28;3.55;;;14.00;94.80;;;;;;4998274;28;20084;-67
2021/05/28 00:13:36;;;;;;;5.13;4.00;;;14.10;94.90;;;;;;5009812;28;20362;-67
2021/05/28 00:16:20;;;;;;;3.83;3.08;;;14.00;95.00;;;;;;5010605;28;20124;-67
2021/05/28 00:19:04;;;;;;;5.47;3.05;;;14.00;95.00;;;;;;5006995;28;20064;-66
2021/05/28 00:21:48;;;;;;;7.45;3.78;;;14.00;95.00;;;;;;5015790;28;20512;-67
2021/05/28 00:24:32;;;;;;;4.72;3.53;;;14.00;95.00;;;;;;5016892;28;20100;-67
2021/05/28 00:27:16;;;;;;;4.95;3.90;;;14.10;95.10;;;;;;5029851;28;20036;-67
2021/05/28 00:30:00;;;;;;;4.20;3.67;;;14.00;95.00;;;;;;5027713;28;20049;-67
2021/05/28 00:32:45;;;;;;;5.22;3.83;;;14.10;95.10;;;;;;5034636;28;20075;-71
2021/05/28 00:35:29;;;;;;;8.18;3.67;;;14.00;95.10;;;;;;5032627;28;20111;-71
2021/05/28 00:38:13;;;;;;;5.90;4.10;;;14.00;95.10;;;;;;5031512;28;20032;-71
2021/05/28 00:40:57;;;;;;;5.72;3.70;;;14.10;95.10;;;;;;4995224;28;20848;-70
2021/05/28 00:43:41;;;;;;;7.05;3.13;;;14.10;95.10;;;;;;5000674;28;20107;-71
2021/05/28 00:46:26;;;;;;;6.47;3.58;;;14.00;95.20;;;;;;5032177;28;20500;-71
2021/05/28 00:49:10;;;;;;;;;;;14.00;95.30;;;;;;5019615;28;20064;-71
2021/05/28 00:51:55;;;;;;;6.80;3.97;;;14.00;95.40;;;;;;5034378;28;19920;-72
2021/05/28 00:54:39;;;;;;;6.22;4.18;;;13.90;95.30;;;;;;5019602;28;20048;-70
2021/05/28 00:57:26;;;;;;;4.93;3.58;;;13.90;95.30;;;;;;5022656;28;20239;-70
2021/05/28 01:00:11;;;;;;;5.90;4.13;;;14.00;95.40;;;;;;5009635;28;20072;-70
2021/05/28 01:02:55;;;;;;;6.40;3.63;;;13.90;95.40;;;;;;5006766;28;20056;-71
2021/05/28 01:05:39;;;;;;;6.37;3.90;;;14.00;95.40;;;;;;5013192;28;20040;-71
2021/05/28 01:08:23;;;;;;;4.20;3.33;;;14.00;95.30;;;;;;5028457;28;20798;-70
2021/05/28 01:10:49;;;;;;;4.63;3.83;;;14.00;95.30;;;;;;4999193;28;20062;-69
2021/05/28 01:13:33;;;;;;;6.13;3.57;;;14.00;95.30;;;;;;5013989;28;20088;-70
2021/05/28 01:16:18;;;;;;;6.70;3.85;;;14.00;95.30;;;;;;5013858;28;20509;-69
2021/05/28 01:19:02;;;;;;;4.70;3.60;;;13.90;95.30;;;;;;5029306;28;20050;-69
2021/05/28 01:21:46;;;;;;;5.15;3.67;;;13.90;95.30;;;;;;5014168;28;20071;-69
2021/05/28 01:24:32;;;;;;;5.05;4.03;;;13.90;95.30;;;;;;5022077;28;20120;-70
2021/05/28 01:27:17;;;;;;;;;;;13.90;95.30;;;;;;5001436;28;20409;-70
2021/05/28 01:30:01;;;;;;;6.68;3.63;;;14.00;95.20;;;;;;5014993;28;20328;-69
2021/05/28 01:32:46;;;;;;;7.28;4.50;;;13.90;95.30;;;;;;5013731;28;20188;-69
2021/05/28 01:35:30;;;;;;;5.32;3.88;;;13.90;95.30;;;;;;5012929;28;20083;-69
2021/05/28 01:38:14;;;;;;;5.45;3.97;;;14.00;95.30;;;;;;5033794;28;20124;-69
2021/05/28 01:40:58;;;;;;;8.10;4.20;;;13.90;95.20;;;;;;5019844;28;20453;-69
2021/05/28 01:43:42;;;;;;;7.25;4.13;;;13.90;95.20;;;;;;4993245;28;20569;-69
2021/05/28 01:46:29;;;;;;;4.47;3.65;;;13.90;95.30;;;;;;5019664;28;20052;-69
2021/05/28 01:49:13;;;;;;;4.82;3.65;;;13.90;95.20;;;;;;5027783;28;20773;-69
2021/05/28 01:51:57;;;;;;;6.35;3.83;;;13.90;95.30;;;;;;5029371;28;20405;-71
2021/05/28 01:54:41;;;;;;;5.75;3.80;;;13.90;95.20;;;;;;5016078;28;20080;-71
2021/05/28 01:57:25;;;;;;;5.43;3.63;;;13.90;95.20;;;;;;5012776;28;20037;-72
2021/05/28 02:00:14;;;;;;;5.75;3.67;;;13.90;95.20;;;;;;5002934;28;20072;-71
2021/05/28 02:02:58;;;;;;;5.32;3.75;;;13.90;95.20;;;;;;5028396;28;20123;-72
2021/05/28 02:05:44;;;;;;;5.03;4.00;;;13.90;95.30;;;;;;5009105;28;20044;-70
2021/05/28 02:08:28;;;;;;;7.20;3.90;;;13.80;95.30;;;;;;5033482;28;20095;-70
2021/05/28 02:11:12;;;;;;;5.18;3.92;;;13.80;95.40;;;;;;5025709;28;20446;-70
2021/05/28 02:13:56;;;;;;;6.70;3.97;;;13.80;95.30;;;;;;5006340;28;20156;-70
2021/05/28 02:16:40;;;;;;;6.85;3.75;;;13.90;95.30;;;;;;5011825;28;20032;-70
2021/05/28 02:19:25;;;;;;;5.05;4.00;;;13.80;95.30;;;;;;5011883;28;20068;-71
2021/05/28 02:22:11;;;;;;;5.90;4.43;;;13.90;95.30;;;;;;4993563;28;20177;-70
2021/05/28 02:24:55;;;;;;;6.00;4.43;;;13.80;95.20;;;;;;5007256;28;20488;-71
2021/05/28 02:27:40;;;;;;;6.57;5.00;;;13.80;95.20;;;;;;5015970;28;20045;-70
2021/05/28 02:30:24;;;;;;;4.70;3.95;;;13.80;95.20;;;;;;5021154;28;20083;-70
2021/05/28 02:33:08;;;;;;;9.40;4.00;;;13.80;95.10;;;;;;5032852;28;20053;-69
2021/05/28 02:35:52;;;;;;;6.35;3.67;;;13.80;95.10;;;;;;5026315;28;20031;-70
2021/05/28 02:38:36;;;;;;;6.55;3.85;;;13.80;95.10;;;;;;5032718;28;20393;-70
2021/05/28 02:41:20;;;;;;;6.35;4.15;;;13.80;95.10;;;;;;5012094;28;20041;-69
2021/05/28 02:44:05;;;;;;;4.45;3.42;;;13.70;95.10;;;;;;5011356;28;20200;-70
2021/05/28 02:46:49;;;;;;;7.00;3.97;;;13.70;95.10;;;;;;5031376;28;20109;-70
2021/05/28 02:49:35;;;;;;;7.25;3.80;;;13.70;95.00;;;;;;5015819;28;20033;-70
2021/05/28 02:52:19;;;;;;;5.55;3.58;;;13.70;95.00;;;;;;5016070;28;20516;-70
2021/05/28 02:55:04;;;;;;;4.45;3.85;;;13.70;95.00;;;;;;5019698;28;20099;-70
2021/05/28 02:57:48;;;;;;;4.97;3.42;;;13.70;95.00;;;;;;5011368;28;20087;-70
2021/05/28 03:00:32;;;;;;;4.90;3.40;;;13.60;94.90;;;;;;5016014;28;20089;-71
2021/05/28 03:03:16;;;;;;;4.10;2.92;;;13.60;94.90;;;;;;4998607;28;20402;-71
2021/05/28 03:06:00;;;;;;;6.38;3.13;;;13.60;94.80;;;;;;5009572;28;20072;-71
2021/05/28 03:08:44;;;;;;;5.67;2.70;;;13.50;94.70;;;;;;5022949;28;20397;-71
2021/05/28 03:11:28;;;;;;;4.80;2.53;;;13.50;94.70;;;;;;4998816;28;20040;-71
2021/05/28 03:14:12;;;;;;;4.00;2.50;;;13.50;94.80;;;;;;5023949;28;20164;-70
2021/05/28 03:16:56;;;;;;;5.97;3.60;;;13.50;94.70;;;;;;5019941;28;20048;-72
2021/05/28 03:19:45;;;;;;;4.85;2.95;;;13.50;94.60;;;;;;5023433;28;20049;-74
2021/05/28 03:25:17;;;;;;;5.57;2.45;;;13.50;94.60;;;;;;5017690;28;20044;-72
2021/05/28 03:28:01;;;;;;;4.47;2.53;;;13.40;94.70;;;;;;5024090;28;20044;-72
2021/05/28 03:30:45;;;;;;;5.63;2.40;;;13.50;94.70;;;;;;5013778;28;20091;-72
2021/05/28 03:33:29;;;;;;;4.28;2.20;;;13.40;94.60;;;;;;5010975;28;20452;-70
2021/05/28 03:36:14;;;;;;;3.67;2.10;;;13.40;94.50;;;;;;4993466;28;20538;-71
2021/05/28 03:38:57;;;;;;;3.53;2.20;;;13.40;94.40;;;;;;5010248;28;20444;-68
2021/05/28 03:41:42;;;;;;;2.53;1.90;;;13.40;94.40;;;;;;5008113;28;20049;-70
2021/05/28 03:44:26;;;;;;;2.83;2.17;;;13.40;94.30;;;;;;5012245;28;20041;-72
2021/05/28 03:47:10;;;;;;;6.00;1.80;;;13.30;94.40;;;;;;5009669;28;20088;-68
2021/05/28 03:49:54;;;;;;;3.25;1.98;;;13.30;94.30;;;;;;5009164;28;20044;-68
2021/05/28 03:52:38;;;;;;;2.80;1.98;;;13.20;94.40;;;;;;5025242;28;20048;-68
2021/05/28 03:55:22;;;;;;;3.25;2.30;;;13.20;94.40;;;;;;5011882;28;20357;-68
2021/05/28 03:58:06;;;;;;;4.63;1.83;;;13.20;94.40;;;;;;5028129;28;20080;-70
2021/05/28 04:00:50;;;;;;;3.58;2.17;;;13.20;94.50;;;;;;5008226;28;20040;-69
2021/05/28 04:03:34;;;;;;;4.82;2.22;;;13.20;94.60;;;;;;5015335;28;20096;-69
2021/05/28 04:06:18;;;;;;;3.08;2.00;;;13.20;94.60;;;;;;5009805;28;20032;-69
2021/05/28 04:09:02;;;;;;;3.05;1.92;;;13.20;94.60;;;;;;5027998;28;20048;-69
2021/05/28 04:11:46;;;;;;;4.05;2.40;;;13.20;94.60;;;;;;5014411;28;20123;-70
2021/05/28 04:14:30;;;;;;;3.45;2.30;;;13.10;94.60;;;;;;5010645;28;20056;-70
2021/05/28 04:17:14;;;;;;;3.08;1.98;;;13.20;94.60;;;;;;5016038;28;20044;-70
2021/05/28 04:19:58;;;;;;;4.53;2.17;;;13.20;94.60;;;;;;5023137;28;20049;-70
2021/05/28 04:22:43;;;;;;;5.38;2.60;;;13.20;94.80;;;;;;5014434;28;20044;-69
2021/05/28 04:25:28;;;;;;;4.00;2.55;;;13.10;94.90;;;;;;5008500;28;20049;-69
2021/05/28 04:28:12;;;;;;;4.45;2.25;;;13.10;94.90;;;;;;5008571;28;20502;-69
2021/05/28 04:30:57;;;;;;;4.45;2.00;;;13.10;94.90;;;;;;5012162;28;20103;-69
2021/05/28 04:33:41;;;;;;;3.50;2.65;;;13.20;94.90;;;;;;5017325;28;20058;-69
2021/05/28 04:36:25;;;;;;;3.40;2.15;;;13.20;94.90;;;;;;4995770;28;20132;-68
2021/05/28 04:39:09;;;;;;;6.35;2.58;;;13.20;94.80;;;;;;5009546;28;20053;-67
2021/05/28 04:41:55;;;;;;;4.35;2.65;;;13.30;94.90;;;;;;5014613;28;20040;-68
2021/05/28 04:44:39;;;;;;;3.08;2.25;;;13.30;94.80;;;;;;5013443;28;20088;-68
2021/05/28 04:47:23;;;;;;;3.10;2.40;;;13.40;94.80;;;;;;5025044;28;20492;-68
2021/05/28 04:50:07;;;;;;;3.85;2.42;;;13.40;94.80;;;;;;5005665;28;20088;-69
2021/05/28 04:52:51;;;;;;;3.78;2.50;;;13.50;94.70;;;;;;5016558;28;20052;-69
2021/05/28 04:55:35;;;;;;;4.43;2.20;;;13.60;94.70;;;;;;5008443;28;20165;-69
2021/05/28 04:58:19;;;;;;;4.33;2.47;;;13.70;94.70;;;;;;5034539;28;20044;-69
2021/05/28 05:01:04;;;;;;;3.30;2.40;;;13.60;94.60;;;;;;5016270;28;20500;-69
2021/05/28 05:03:48;;;;;;;4.10;2.50;;;13.60;94.70;;;;;;5027393;28;20452;-69
2021/05/28 05:06:32;;;;;;;3.05;2.25;;;13.60;94.70;;;;;;5008713;28;20504;-69
2021/05/28 05:09:16;;;;;;;4.05;2.53;;;13.60;94.90;;;;;;5012980;28;20033;-69
2021/05/28 05:12:00;;;;;;;4.35;2.60;;;13.70;95.00;;;;;;5012108;28;20076;-68
2021/05/28 05:14:44;;;;;;;5.80;2.75;;;13.70;95.00;;;;;;5011500;28;20037;-68
2021/05/28 05:17:28;;;;;;;3.97;2.63;;;13.70;95.00;;;;;;5021303;28;20088;-68
2021/05/28 05:20:12;;;;;;;5.60;2.78;;;13.80;95.00;;;;;;5015374;28;20037;-70
2021/05/28 05:22:57;;;;;;;4.55;2.80;;;13.80;95.00;;;;;;5034049;28;20040;-69
2021/05/28 05:25:41;;;;;;;3.85;2.83;;;13.80;95.00;;;;;;5016634;28;20095;-69
2021/05/28 05:28:25;;;;;;;4.70;2.83;;;13.80;94.90;;;;;;5005144;28;20043;-69
2021/05/28 05:31:09;;;;;;;5.85;3.22;;;13.80;94.90;;;;;;5013399;28;20037;-69
2021/05/28 05:33:53;;;;;;;5.28;3.47;;;13.80;94.80;;;;;;5012483;28;20100;-69
2021/05/28 05:36:39;;;;;;;4.47;3.00;;;13.80;94.90;;;;;;4994633;28;20057;-69
2021/05/28 05:39:24;;;;;;;4.25;3.20;;;13.80;95.00;;;;;;4998649;28;20504;-69
2021/05/28 05:42:08;;;;;;;5.03;3.30;;;13.80;95.00;;;;;;5003464;28;20069;-69
2021/05/28 05:44:52;;;;;;;5.40;3.30;;;13.90;95.00;;;;;;5012316;28;20107;-69
2021/05/28 05:47:36;;;;;;;5.53;3.65;;;13.80;94.90;;;;;;5019528;28;20481;-69
2021/05/28 05:50:20;;;;;;;6.20;3.20;;;13.80;94.90;;;;;;5018497;28;20540;-69
2021/05/28 05:53:04;;;;;;;5.07;3.57;;;13.90;95.00;;;;;;5022699;28;20128;-69
2021/05/28 05:55:49;;;;;;;6.50;3.30;;;13.90;95.00;;;;;;5015338;28;20048;-69
2021/05/28 05:58:33;;;;;;;6.88;3.67;;;14.00;95.10;;;;;;5028469;28;20045;-70
2021/05/28 06:01:17;;;;;;;8.20;4.60;;;14.00;95.10;;;;;;5012803;28;20048;-69
2021/05/28 06:04:02;;;;;;;4.82;4.00;;;14.00;95.00;;;;;;5020354;28;20057;-69
2021/05/28 06:06:46;;;;;;;6.88;4.20;;;14.00;95.00;;;;;;5017119;28;20539;-70
2021/05/28 06:09:30;;;;;;;5.93;4.22;;;14.10;94.90;;;;;;5011401;28;20076;-70
2021/05/28 06:12:14;;;;;;;7.57;4.35;;;14.10;94.80;;;;;;5019230;28;20148;-70
2021/05/28 06:14:57;;;;;;;7.30;3.88;;;14.10;94.70;;;;;;5001730;28;20512;-70
2021/05/28 06:17:42;;;;;;;5.13;3.80;;;14.10;94.70;;;;;;5026831;28;20118;-70
2021/05/28 06:20:26;;;;;;;7.13;3.80;;;14.20;94.70;;;;;;5017746;28;20394;-70
2021/05/28 06:23:10;;;;;;;6.57;3.65;;;14.20;94.60;;;;;;5030451;28;20124;-69
2021/05/28 06:25:56;;;;;;;7.03;3.63;;;14.20;94.50;;;;;;5025692;28;20397;-70
2021/05/28 06:28:40;;;;;;;4.97;3.88;;;14.20;94.50;;;;;;5010394;28;20049;-67
2021/05/28 06:31:24;;;;;;;4.60;3.25;;;14.20;94.60;;;;;;5000100;28;20565;-67
2021/05/28 06:34:08;;;;;;;4.35;3.45;;;14.20;94.70;;;;;;5002840;28;20061;-67
2021/05/28 06:36:52;;;;;;;7.22;3.65;;;14.30;94.80;;;;;;5010260;28;20080;-68
2021/05/28 06:39:36;;;;;;;5.38;3.75;;;14.30;94.90;;;;;;5009538;28;20041;-68
2021/05/28 06:42:20;;;;;;;7.40;4.28;;;14.30;94.90;;;;;;5010323;28;20537;-67
2021/05/28 06:45:05;;;;;;;6.15;4.18;;;14.30;94.80;;;;;;5000436;28;20093;-68
2021/05/28 06:47:49;;;;;;;6.07;3.80;;;14.30;94.80;;;;;;4996650;28;20533;-67
2021/05/28 06:50:33;;;;;;;5.97;3.75;;;14.30;94.90;;;;;;5005859;28;20171;-68
2021/05/28 06:53:17;;;;;;;7.10;3.97;;;14.30;94.90;;;;;;4993308;28;20053;-68
2021/05/28 06:56:02;;;;;;;6.05;4.85;;;14.40;94.90;;;;;;4999498;28;20045;-67
2021/05/28 06:58:50;;;;;;;7.55;6.45;;;14.40;94.80;;;;;;4997626;28;20043;-67
2021/05/28 07:01:34;;;;;;;5.18;3.80;;;14.40;94.70;;;;;;4999133;28;20076;-68
2021/05/28 07:04:19;;;;;;;6.30;4.18;;;14.50;94.60;;;;;;5002642;28;20033;-68
2021/05/28 07:07:03;;;;;;;5.57;4.03;;;14.40;94.60;;;;;;4992337;28;20080;-68
2021/05/28 07:09:48;;;;;;;6.70;3.97;;;14.50;94.70;;;;;;4996871;28;20067;-68
2021/05/28 07:12:33;;;;;;;6.90;4.53;;;14.60;94.60;;;;;;4997959;28;20056;-68
2021/05/28 07:15:18;;;;;;;8.50;5.43;;;14.70;94.60;;;;;;5002956;28;20052;-68
2021/05/28 07:18:02;;;;;;;5.85;3.92;;;14.70;94.40;;;;;;5003120;28;20065;-68
2021/05/28 07:20:47;;;;;;;7.68;5.82;;;14.60;94.30;;;;;;5005453;28;20060;-68
2021/05/28 07:23:31;;;;;;;5.85;4.07;;;14.70;94.50;;;;;;5001677;28;20302;-66
2021/05/28 07:26:15;;;;;;;7.88;4.53;;;14.80;94.50;;;;;;5001839;28;20049;-66
2021/05/28 07:29:00;;;;;;;5.50;4.27;;;15.00;94.40;;;;;;5006399;28;20360;-66
2021/05/28 07:31:43;;;;;;;7.38;4.10;;;15.10;94.50;;;;;;5001954;28;20045;-66
2021/05/28 07:34:27;;;;;;;5.82;4.15;;;15.20;94.10;;;;;;5006255;28;20032;-66
2021/05/28 07:37:11;;;;;;;8.88;5.00;;;15.20;94.00;;;;;;5008839;28;20084;-66
2021/05/28 07:39:56;;;;;;;6.47;4.90;;;15.30;94.00;;;;;;5009858;28;20163;-66
2021/05/28 07:42:40;;;;;;;7.07;4.40;;;15.30;93.80;;;;;;5009816;28;20041;-66
2021/05/28 07:45:24;;;;;;;9.43;4.60;;;15.40;93.70;;;;;;5010641;28;20121;-66
2021/05/28 07:48:08;;;;;;;5.80;3.97;;;15.50;93.60;;;;;;5010882;28;20121;-67
2021/05/28 07:50:58;;;;;;;8.48;4.47;;;15.60;93.40;;;;;;5009873;28;20045;-67
2021/05/28 07:53:42;;;;;;;6.55;4.13;;;15.70;93.30;;;;;;4991396;28;20634;-67
2021/05/28 07:56:26;;;;;;;7.80;4.27;;;15.80;92.90;;;;;;5005757;28;20045;-66
2021/05/28 07:59:11;;;;;;;5.15;3.95;;;15.80;93.00;;;;;;4990832;28;20041;-66
2021/05/28 08:01:55;;;;;;;4.55;3.78;;;15.90;93.40;;;;;;4996404;28;20084;-66
2021/05/28 08:04:39;;;;;;;5.40;4.05;;;16.10;93.00;;;;;;5007736;28;20516;-66
2021/05/28 08:07:23;;;;;;;6.55;3.70;;;16.20;92.20;;;;;;5000687;28;20516;-67
2021/05/28 08:10:07;;;;;;;5.78;3.50;;;16.30;91.70;;;;;;5009217;28;20056;-65
2021/05/28 08:12:52;;;;;;;5.38;3.38;;;16.40;91.80;;;;;;5005648;28;20052;-67
2021/05/28 08:15:36;;;;;;;7.25;3.30;;;16.50;91.80;;;;;;5015345;28;20073;-67
2021/05/28 08:18:01;;;;;;;6.60;3.10;;;16.60;91.60;;;;;;4990913;28;20467;-66
2021/05/28 08:20:28;;;;;;;6.25;3.40;;;16.60;91.50;;;;;;5000215;28;20034;-66
2021/05/28 08:22:54;;;;;;;6.55;3.33;;;16.70;91.30;;;;;;4991831;28;20040;-65
2021/05/28 08:25:21;;;;;;;4.68;3.20;;;16.90;91.20;;;;;;4995705;28;20104;-65
2021/05/28 08:27:46;;;;;;;6.70;2.90;;;17.00;91.50;;;;;;5008434;28;20033;-65
2021/05/28 08:30:14;;;;;;;4.55;2.80;;;17.20;91.30;;;;;;5007348;28;20026;-66
2021/05/28 08:32:40;;;;;;;5.60;2.63;;;17.40;90.50;;;;;;5011289;28;20057;-66
2021/05/28 08:35:06;;;;;;;5.13;2.85;;;17.60;89.90;;;;;;5001399;28;20525;-66
2021/05/28 08:37:31;;;;;;;3.88;2.47;;;17.60;89.30;;;;;;5010718;28;20144;-66
2021/05/28 08:39:57;;;;;;;3.53;2.20;;;17.70;87.10;;;;;;5008865;28;20137;-66
2021/05/28 08:42:22;;;;;;;4.18;2.90;;;17.70;87.00;;;;;;5011026;28;20030;-66
2021/05/28 08:44:49;;;;;;;4.45;2.47;;;17.70;85.90;;;;;;5007334;28;20413;-66
2021/05/28 08:47:18;;;;;;;5.43;2.88;;;17.60;85.80;;;;;;5011155;28;20029;-66
2021/05/28 08:49:47;;;;;;;4.13;2.42;;;17.60;85.20;;;;;;5008781;28;20096;-66
2021/05/28 08:52:13;;;;;;;5.35;2.80;;;17.70;85.80;;;;;;5013658;28;20092;-66
2021/05/28 08:54:39;;;;;;;6.47;2.95;;;17.80;85.90;;;;;;5007694;28;20609;-67
2021/05/28 08:57:05;;;;;;;4.70;2.50;;;17.80;85.50;;;;;;5003349;28;20084;-67
2021/05/28 08:59:30;;;;;;;3.80;2.70;;;17.90;85.50;;;;;;5004873;28;20029;-67
2021/05/28 09:01:56;;;;;;;4.82;2.88;;;17.90;85.40;;;;;;5014160;28;20045;-68
2021/05/28 09:04:21;;;;;;;5.03;2.50;;;17.90;85.00;;;;;;5009501;28;20069;-67
2021/05/28 09:06:47;;;;;;;4.95;2.95;;;18.00;84.40;;;;;;5009783;28;20390;-67
2021/05/28 09:09:20;;;;;;;6.32;2.85;;;18.00;84.50;;;;;;5000017;28;20030;-66
2021/05/28 09:12:01;;;;;;;8.95;3.00;;;18.20;84.10;;;;;;5012470;28;20084;-67
2021/05/28 09:14:32;;;;;;;4.13;2.80;;;18.30;83.10;;;;;;5008883;28;20032;-67
2021/05/28 09:16:59;;;;;;;7.03;3.00;;;18.40;83.10;;;;;;5009012;28;20025;-67
2021/05/28 09:19:24;;;;;;;3.38;2.03;;;18.50;82.40;;;;;;4997443;28;20068;-67
2021/05/28 09:21:58;;;;;;;4.55;2.28;;;18.60;81.40;;;;;;5014100;28;20022;-67
2021/05/28 09:24:34;;;;;;;3.28;2.40;;;18.60;81.90;;;;;;4997868;28;20025;-67
2021/05/28 09:27:24;;;;;;;2.47;1.95;;;18.70;81.10;;;;;;5011152;28;20149;-67
2021/05/28 09:30:12;;;;;;;5.53;2.78;;;18.60;80.50;;;;;;5000015;28;20061;-67
2021/05/28 09:32:42;;;;;;;4.63;2.58;;;18.50;81.10;;;;;;5013957;28;20046;-67
2021/05/28 09:35:10;;;;;;;2.65;1.30;;;18.60;80.30;;;;;;5008438;28;20502;-68
2021/05/28 09:37:48;;;;;;;2.38;1.58;;;18.40;74.20;;;;;;5012851;28;20158;-69
2021/05/28 09:40:19;;;;;;;2.72;1.20;;;18.10;71.80;;;;;;5010116;28;20442;-69
2021/05/28 09:43:04;;;;;;;2.03;1.20;;;18.10;73.10;;;;;;5005741;28;20073;-69
2021/05/28 09:45:35;;;;;;;1.50;1.13;;;18.10;72.70;;;;;;5025709;28;20065;-69
2021/05/28 09:48:03;;;;;;;3.85;1.20;;;18.30;73.30;;;;;;5018235;28;20065;-69
2021/05/28 09:50:34;;;;;;;1.58;1.20;;;18.40;71.10;;;;;;5011956;28;20018;-67
2021/05/28 09:53:01;;;;;;;1.35;1.00;;;18.50;70.60;;;;;;5013299;28;20052;-69
2021/05/28 09:55:30;;;;;;;2.65;1.35;;;18.50;68.80;;;;;;5012839;28;20609;-69
2021/05/28 09:57:57;;;;;;;1.73;1.10;;;18.40;66.70;;;;;;5003987;28;20057;-69
2021/05/28 10:00:31;;;;;;;1.30;0.90;;;18.20;67.10;;;;;;5005040;28;20029;-69
2021/05/28 10:03:22;;;;;;;1.30;0.90;;;18.10;67.30;;;;;;5007773;28;20065;-69
2021/05/28 10:05:54;;;;;;;1.92;1.00;;;18.10;66.80;;;;;;5012390;28;20033;-68
2021/05/28 10:08:21;;;;;;;1.90;1.02;;;18.00;68.30;;;;;;5011170;28;20041;-69
2021/05/28 10:10:50;;;;;;;1.65;1.20;;;18.10;69.30;;;;;;5010383;28;20029;-69
2021/05/28 10:13:18;;;;;;;2.40;1.15;;;18.00;68.20;;;;;;5011228;28;20072;-69
2021/05/28 10:15:52;;;;;;;1.25;1.00;;;18.10;68.00;;;;;;5011952;28;20022;-69
2021/05/28 10:18:20;;;;;;;2.10;1.00;;;18.00;64.90;;;;;;5007824;28;20465;-70
2021/05/28 10:20:48;;;;;;;3.33;1.10;;;17.80;65.50;;;;;;5004672;28;20106;-69
2021/05/28 10:23:15;;;;;;;1.25;0.90;;;17.70;66.30;;;;;;5003861;28;20037;-69
2021/05/28 10:25:41;;;;;;;2.63;1.10;;;17.60;68.30;;;;;;5010724;28;20116;-68
2021/05/28 10:28:14;;;;;;;1.75;1.30;;;17.60;69.80;;;;;;5003890;28;20022;-69
2021/05/28 10:30:42;;;;;;;1.63;1.10;;;17.60;71.10;;;;;;5011348;28;20057;-68
2021/05/28 10:33:28;;;;;;;1.73;1.17;;;17.50;71.80;;;;;;5011990;28;20494;-69
2021/05/28 10:36:05;;;;;;;1.58;1.10;;;17.50;72.50;;;;;;5012551;28;20045;-69
2021/05/28 10:38:33;;;;;;;2.97;1.23;;;17.40;73.10;;;;;;5000874;28;20064;-69
2021/05/28 10:41:08;;;;;;;2.13;1.10;;;17.20;72.20;;;;;;5005266;28;20250;-69
2021/05/28 10:43:49;;;;;;;1.52;0.90;;;17.00;72.30;;;;;;5001874;28;20425;-69
2021/05/28 10:46:15;;;;;;;4.20;1.20;;;16.80;72.80;;;;;;5008928;28;20056;-69
2021/05/28 10:48:41;;;;;;;1.85;1.20;;;16.70;73.70;;;;;;5002098;28;20441;-68
2021/05/28 10:51:08;;;;;;;2.45;1.15;;;16.60;74.70;;;;;;5011967;28;20034;-68
2021/05/28 10:53:35;;;;;;;2.50;1.40;;;16.40;75.50;;;;;;5004088;28;20442;-67
2021/05/28 10:56:08;;;;;;;2.53;1.23;;;16.20;76.90;;;;;;5008760;28;20033;-67
2021/05/28 10:58:52;;;;;;;1.70;1.17;;;16.10;77.90;;;;;;5005993;28;20032;-68
2021/05/28 11:01:47;;;;;;;2.15;1.38;;;15.90;78.40;;;;;;5006884;28;20074;-67
2021/05/28 11:04:21;;;;;;;1.75;1.17;;;15.80;78.90;;;;;;5006040;28;20434;-68
2021/05/28 11:06:59;;;;;;;3.47;1.90;;;15.70;79.80;;;;;;5010635;28;20498;-68
2021/05/28 11:09:37;;;;;;;3.58;1.60;;;15.60;80.20;;;;;;5003684;28;20284;-68
2021/05/28 11:12:06;;;;;;;1.42;1.13;;;15.60;81.20;;;;;;5018502;28;20059;-68
2021/05/28 11:14:35;;;;;;;2.53;1.48;;;15.60;81.50;;;;;;5010758;28;20515;-68
2021/05/28 11:17:20;;;;;;;3.10;1.40;;;15.50;81.30;;;;;;5000479;28;20037;-68
2021/05/28 11:20:05;;;;;;;;;;;15.60;81.90;;;;;;5007410;28;20493;-68
2021/05/28 11:22:51;;;;;;;2.85;1.40;;;15.50;81.50;;;;;;5007671;28;19917;-68
2021/05/28 11:25:45;;;;;;;3.28;1.50;;;15.40;82.80;;;;;;4992283;28;20057;-67
2021/05/28 11:28:48;;;;;;;11.15;2.13;;;15.30;84.10;;;;;;5001399;28;20532;-68
2021/05/28 11:31:32;;;;;;;3.38;1.30;;;15.20;84.40;;;;;;4998251;28;20430;-68
2021/05/28 11:34:16;;;;;;;3.58;1.40;;;15.10;82.70;;;;;;5008870;28;20513;-68
2021/05/28 11:37:00;;;;;;;7.00;1.80;;;15.10;83.70;;;;;;5007854;28;20037;-68
2021/05/28 11:39:45;;;;;;;2.67;1.40;;;15.10;84.30;;;;;;5005790;28;20500;-67
2021/05/28 11:42:29;;;;;;;2.58;1.40;;;15.10;85.10;;;;;;5008888;28;20096;-68
2021/05/28 11:45:15;;;;;;;2.40;1.60;;;15.10;85.80;;;;;;5002125;28;20029;-68
2021/05/28 11:47:59;;;;;;;1.80;1.42;;;15.20;85.10;;;;;;5010512;28;20492;-68
2021/05/28 11:50:25;;;;;;;3.78;2.22;;;15.30;85.80;;;;;;5006552;28;20034;-67
2021/05/28 11:53:02;;;;;;;3.25;1.73;;;15.40;85.60;;;;;;5012096;28;20053;-67
2021/05/28 11:55:30;;;;;;;3.45;1.90;;;15.50;85.40;;;;;;4992763;28;20074;-67
2021/05/28 11:58:01;;;;;;;2.72;1.30;;;15.60;85.50;;;;;;4997484;28;20037;-69
2021/05/28 12:00:27;;;;;;;2.20;1.45;;;15.80;85.10;;;;;;5007939;28;20030;-67
2021/05/28 12:02:57;;;;;;;3.10;1.90;;;15.90;85.20;;;;;;5009331;28;20282;-68
2021/05/28 12:05:27;;;;;;;4.15;1.70;;;16.00;85.80;;;;;;5011152;28;20117;-68
2021/05/28 12:07:56;;;;;;;2.30;1.70;;;16.20;84.80;;;;;;5009149;28;20045;-68
2021/05/28 12:10:27;;;;;;;2.88;1.75;;;16.30;85.20;;;;;;5010556;28;20045;-67
2021/05/28 12:12:55;;;;;;;2.70;1.60;;;16.40;85.00;;;;;;4993779;28;20089;-67
2021/05/28 12:15:23;;;;;;;3.92;1.50;;;16.40;83.60;;;;;;5004565;28;20026;-67
2021/05/28 12:17:49;;;;;;;3.22;1.40;;;16.50;80.70;;;;;;5007966;28;20019;-68
2021/05/28 12:20:16;;;;;;;1.90;1.20;;;16.60;80.40;;;;;;5008221;28;20029;-68
2021/05/28 12:23:00;;;;;;;2.10;1.40;;;16.70;81.10;;;;;;5007874;28;20022;-69
2021/05/28 12:25:27;;;;;;;1.70;1.23;;;16.80;78.10;;;;;;5011817;28;20351;-67
2021/05/28 12:27:54;;;;;;;1.08;0.80;;;16.70;75.10;;;;;;5012546;28;20403;-68
2021/05/28 12:30:26;;;;;;;1.42;0.90;;;16.40;71.60;;;;;;5007869;28;20034;-68
2021/05/28 12:32:52;;;;;;;1.13;0.85;;;16.10;73.20;;;;;;5013017;28;20514;-67
2021/05/28 12:35:19;;;;;;;1.80;1.00;;;16.00;75.10;;;;;;5015344;28;20066;-67
2021/05/28 12:38:05;;;;;;;0.90;0.80;;;16.00;74.90;;;;;;5010541;28;20044;-67
2021/05/28 12:40:31;;;;;;;1.30;1.10;;;15.90;75.40;;;;;;5009847;28;20026;-66
2021/05/28 12:42:58;;;;;;;2.42;1.35;;;15.70;75.60;;;;;;5013125;28;20044;-67
2021/05/28 12:45:35;;;;;;;4.13;1.65;;;15.60;76.90;;;;;;5014956;28;20156;-67
2021/05/28 12:48:01;;;;;;;2.45;1.60;;;15.50;78.70;;;;;;5011508;28;20030;-67
2021/05/28 12:50:51;;;;;;;2.42;1.55;;;15.30;80.20;;;;;;5019864;28;20041;-67
2021/05/28 12:53:42;;;;;;;1.85;1.40;;;15.10;82.00;;;;;;5008740;28;20049;-66
2021/05/28 12:56:28;;;;;;;2.40;1.50;;;14.90;83.50;;;;;;5006448;28;20041;-66
2021/05/28 12:58:55;;;;;;;3.97;1.50;;;14.80;84.90;;;;;;5010727;28;20033;-66
2021/05/28 13:01:39;;;;;;;3.35;1.50;;;14.80;85.60;;;;;;5015632;28;22581;-65
2021/05/28 13:04:05;;;;;;;2.30;1.50;;;14.60;86.90;;;;;;5009293;28;20030;-68
2021/05/28 13:06:36;;;;;;;2.13;1.45;;;14.50;87.60;;;;;;4995981;28;20456;-68
2021/05/28 13:09:26;;;;;;;2.63;1.40;;;14.60;87.70;;;;;;5017658;28;20032;-69
2021/05/28 13:12:11;;;;;;;2.28;1.52;;;14.60;88.10;;;;;;5004144;28;20045;-68
2021/05/28 13:14:56;;;;;;;2.65;1.63;;;14.60;89.40;;;;;;5009289;28;20312;-68
2021/05/28 13:17:41;;;;;;;2.67;1.70;;;14.70;90.00;;;;;;5011855;28;20122;-69
2021/05/28 13:20:26;;;;;;;3.03;1.77;;;14.70;89.00;;;;;;5004554;28;20091;-69
2021/05/28 13:23:29;;;;;;;3.13;1.70;;;14.90;90.00;;;;;;5013659;28;20091;-69
2021/05/28 13:26:14;;;;;;;2.90;1.70;;;15.00;87.50;;;;;;5004773;28;20363;-67
2021/05/28 13:28:58;;;;;;;2.80;1.70;;;15.20;87.90;;;;;;5003344;28;20390;-70
2021/05/28 13:31:42;;;;;;;2.40;1.55;;;15.30;87.70;;;;;;5013342;28;20037;-69
2021/05/28 13:34:26;;;;;;;3.03;1.80;;;15.50;86.50;;;;;;5004760;28;20053;-69
2021/05/28 13:37:10;;;;;;;2.65;1.83;;;15.60;86.40;;;;;;5004547;28;20462;-69
2021/05/28 13:39:54;;;;;;;2.47;1.73;;;15.80;86.80;;;;;;5001597;28;20092;-68
2021/05/28 13:42:38;;;;;;;3.53;1.85;;;16.00;85.50;;;;;;5002145;28;20040;-70
2021/05/28 13:45:05;;;;;;;3.88;1.40;;;16.30;85.50;;;;;;5010479;28;20125;-69
2021/05/28 13:47:31;;;;;;;2.60;1.80;;;16.50;84.30;;;;;;5008017;28;20080;-68
2021/05/28 13:50:15;;;;;;;2.10;1.40;;;16.70;83.80;;;;;;5007179;28;20042;-68
2021/05/28 13:52:59;;;;;;;2.40;1.47;;;16.90;81.90;;;;;;5005533;28;20310;-69
2021/05/28 13:55:45;;;;;;;1.60;1.33;;;17.20;82.60;;;;;;5012430;28;20593;-68
2021/05/28 13:58:29;;;;;;;3.13;1.40;;;17.20;77.60;;;;;;5001878;28;20065;-68